Ted Stevens Anchorage International Airport Anchorage US
ICAO: PANC
IATA: ANC
Category: Large
Scheduled Services:

Elevation: 152 ft
TransAlt. 18000 ft.

Airport Communications:
APP/DEP:119.1
APP/DEP:123.8
ATIS:118.4
TWEB:114.3
CLNC DEL:119.4
KENAI RDO:122.2
GND:121.9
SAN FRANCISCO ARINC:1133
CAMPER:140.15
KENAI RDO:122.55
TWR:118.3
UNICOM:122.95

PANC Zoom In..

Runways:

(A) RW 07L length 10600 ft width 150 ft
ILS 109.90 / hdg 71

(B) RW 07R length 12400 ft width 200 ft
ILS 111.30 / hdg 71

(C) RW 15 length 11584 ft width 150 ft
ILS 111.75 / hdg 146

(D) RW 25L length 12400 ft width 200 ft
---- / hdg 251

(E) RW 25R length 10600 ft width 150 ft
---- / hdg 251

(F) RW 33 length 11584 ft width 150 ft
---- / hdg 326

Location; PANC
Day. 01 / Time. 16.53 Zulu
* Altimeter: 28.82
* Temperature: 03° c. 37.4°f.
* Wind from: 110° Speed 10 kn with Gusts up to 17 kn.
Dewpoint: -02° c.
Visibility: 10 Statute Miles.
Clouds: Broken 6000 ft.
Clouds: Overcast 7500 ft.
Conditions: Light Rain.

PANC 011653Z 11010G17KT 10SM -RA BKN060 OVC075 03/M02 A2882 RMK AO2 RAB10 SLP759 P0000 T00281017 $

Going to: --> -->


Wind From 110°
Speed 10 kn.

 
 
jpsmedia worldairports.se 2020   terms of use